createdAt,value
2023-02-03T00:00:52.047Z,5.93
2023-02-03T00:04:53.124Z,7.13
2023-02-03T00:08:58.719Z,5.60
2023-02-03T00:12:59.798Z,6.83
2023-02-03T00:17:00.787Z,5.57
2023-02-03T00:21:01.855Z,7.40
2023-02-03T00:25:03.401Z,7.37
2023-02-03T00:29:04.556Z,6.20
2023-02-03T00:33:05.640Z,5.70
2023-02-03T00:37:06.554Z,6.97
2023-02-03T00:41:07.677Z,5.10
2023-02-03T00:45:08.950Z,6.80
2023-02-03T00:49:10.017Z,9.97
2023-02-03T00:53:10.964Z,6.57
2023-02-03T00:57:11.931Z,5.47
2023-02-03T01:01:12.959Z,4.97
2023-02-03T01:05:14.121Z,4.97
2023-02-03T01:09:15.175Z,3.97
2023-02-03T01:13:16.251Z,8.63
2023-02-03T01:17:17.229Z,4.90
2023-02-03T01:21:21.308Z,4.57
2023-02-03T01:25:22.364Z,5.00
2023-02-03T01:29:23.322Z,4.67
2023-02-03T01:33:24.598Z,4.50
2023-02-03T01:37:25.704Z,6.03
2023-02-03T01:41:33.708Z,6.30
2023-02-03T01:45:34.945Z,5.23
2023-02-03T01:49:38.478Z,6.43
2023-02-03T01:53:40.486Z,5.57
2023-02-03T01:57:54.162Z,4.67
2023-02-03T02:01:56.127Z,5.03
2023-02-03T02:06:08.995Z,6.57
2023-02-03T02:10:10.694Z,5.40
2023-02-03T02:14:11.762Z,4.33
2023-02-03T02:18:16.712Z,4.37
2023-02-03T02:22:24.634Z,4.93
2023-02-03T02:26:41.440Z,4.77
2023-02-03T02:31:01.301Z,5.77
2023-02-03T02:35:21.531Z,6.13
2023-02-03T02:39:38.504Z,5.07
2023-02-03T02:43:52.232Z,5.13
2023-02-03T02:47:57.004Z,6.13
2023-02-03T02:52:01.918Z,5.20
2023-02-03T02:56:06.014Z,8.23
2023-02-03T03:00:08.459Z,4.00
2023-02-03T03:04:11.567Z,4.40
2023-02-03T03:08:13.959Z,3.70
2023-02-03T03:12:18.828Z,4.77
2023-02-03T03:16:25.345Z,3.73
2023-02-03T03:20:27.571Z,4.73
2023-02-03T03:24:32.769Z,5.13
2023-02-03T03:28:43.368Z,4.93
2023-02-03T03:32:44.764Z,4.07
2023-02-03T03:36:49.431Z,3.17
2023-02-03T03:40:57.109Z,3.20
2023-02-03T03:45:26.019Z,4.43
2023-02-03T03:49:28.863Z,3.57
2023-02-03T03:53:33.090Z,4.97
2023-02-03T03:57:38.010Z,4.10
2023-02-03T04:01:40.673Z,2.43
2023-02-03T04:05:42.391Z,3.07
2023-02-03T04:09:43.439Z,2.53
2023-02-03T04:13:44.563Z,2.33
2023-02-03T04:17:45.781Z,2.50
2023-02-03T04:21:46.903Z,3.53
2023-02-03T04:25:48.288Z,2.63
2023-02-03T04:29:50.178Z,3.47
2023-02-03T04:33:51.130Z,3.23
2023-02-03T04:37:52.346Z,5.77
2023-02-03T04:41:53.352Z,3.63
2023-02-03T04:45:54.390Z,2.93
2023-02-03T04:49:55.529Z,3.77
2023-02-03T04:53:56.511Z,5.50
2023-02-03T04:57:58.890Z,3.30
2023-02-03T05:02:02.689Z,5.83
2023-02-03T05:06:05.068Z,4.23
2023-02-03T05:10:06.849Z,3.47
2023-02-03T05:14:07.807Z,2.73
2023-02-03T05:18:08.924Z,5.93
2023-02-03T05:22:09.913Z,4.47
2023-02-03T05:26:11.143Z,4.60
2023-02-03T05:30:12.444Z,3.30
2023-02-03T05:34:13.552Z,3.10
2023-02-03T05:38:14.854Z,3.77
2023-02-03T05:42:15.976Z,4.20
2023-02-03T05:46:16.974Z,3.10
2023-02-03T05:50:18.102Z,5.33
2023-02-03T05:54:19.398Z,3.00
2023-02-03T05:58:20.477Z,6.93
2023-02-03T06:02:21.552Z,3.87
2023-02-03T06:06:23.036Z,5.90
2023-02-03T06:10:24.863Z,4.30
2023-02-03T06:14:27.538Z,4.20
2023-02-03T06:18:28.608Z,4.33
2023-02-03T06:22:29.717Z,5.03
2023-02-03T06:26:30.850Z,3.70
2023-02-03T06:30:31.967Z,5.40
2023-02-03T06:34:33.139Z,3.50
2023-02-03T06:38:34.240Z,2.77
2023-02-03T06:42:35.340Z,7.30
2023-02-03T06:46:36.803Z,5.27
2023-02-03T06:50:37.771Z,3.47
2023-02-03T06:54:38.839Z,4.23
2023-02-03T06:58:39.961Z,10.43
2023-02-03T07:02:41.125Z,3.30
2023-02-03T07:06:42.182Z,4.63
2023-02-03T07:10:43.369Z,4.37
2023-02-03T07:14:44.482Z,2.87
2023-02-03T07:18:47.683Z,2.33
2023-02-03T07:22:56.078Z,5.53
2023-02-03T07:26:57.187Z,5.37
2023-02-03T07:30:58.365Z,3.63
2023-02-03T07:35:00.637Z,5.50
2023-02-03T07:39:01.867Z,4.53
2023-02-03T07:47:06.003Z,5.00
2023-02-03T07:51:06.961Z,5.53
2023-02-03T07:55:08.669Z,2.37
2023-02-03T07:59:09.641Z,2.33
2023-02-03T08:03:10.954Z,5.00
2023-02-03T08:07:12.285Z,2.30
2023-02-03T08:11:13.467Z,2.30
2023-02-03T08:15:14.751Z,4.07
2023-02-03T08:19:15.959Z,3.90
2023-02-03T08:23:17.055Z,3.67
2023-02-03T08:27:20.366Z,5.07
2023-02-03T08:31:21.917Z,3.70
2023-02-03T08:35:23.508Z,5.30
2023-02-03T08:39:24.631Z,5.83
2023-02-03T08:43:25.714Z,4.17
2023-02-03T08:47:26.750Z,3.27
2023-02-03T08:51:27.855Z,4.37
2023-02-03T08:55:29.096Z,1.70
2023-02-03T08:59:30.506Z,2.70
2023-02-03T09:03:31.732Z,2.30
2023-02-03T09:07:32.876Z,2.00
2023-02-03T09:11:34.239Z,2.10
2023-02-03T09:15:35.258Z,2.50
2023-02-03T09:19:36.866Z,2.63
2023-02-03T09:23:39.427Z,4.17
2023-02-03T09:27:40.587Z,2.40
2023-02-03T09:31:41.635Z,1.90
2023-02-03T09:35:44.879Z,3.57
2023-02-03T09:39:48.133Z,2.00
2023-02-03T09:43:52.947Z,2.67
2023-02-03T09:47:57.963Z,2.27
2023-02-03T09:52:22.137Z,1.77
2023-02-03T09:56:32.786Z,1.83
2023-02-03T10:00:43.871Z,2.97
2023-02-03T10:05:03.395Z,1.87
2023-02-03T10:09:11.078Z,1.90
2023-02-03T10:13:34.144Z,2.60
2023-02-03T10:17:38.980Z,2.87
2023-02-03T10:21:46.632Z,6.67
2023-02-03T10:25:57.153Z,3.47
2023-02-03T10:30:18.314Z,2.93
2023-02-03T10:34:20.000Z,6.43
2023-02-03T10:38:34.010Z,5.07
2023-02-03T10:42:53.670Z,3.40
2023-02-03T10:46:55.126Z,6.33
2023-02-03T10:50:57.479Z,4.00
2023-02-03T10:55:01.339Z,7.77
2023-02-03T10:59:03.484Z,3.87
2023-02-03T11:03:14.231Z,3.83
2023-02-03T11:07:24.748Z,4.20
2023-02-03T11:11:28.147Z,2.63
2023-02-03T11:15:29.680Z,4.30
2023-02-03T11:19:32.132Z,4.50
2023-02-03T11:23:33.340Z,1.70
2023-02-03T11:27:34.487Z,3.20
2023-02-03T11:31:36.511Z,2.27
2023-02-03T11:35:39.435Z,1.87
2023-02-03T11:39:40.945Z,1.83
2023-02-03T11:43:42.236Z,4.20
2023-02-03T11:47:46.491Z,4.33
2023-02-03T11:51:57.283Z,4.87
2023-02-03T11:56:21.929Z,2.63
2023-02-03T12:00:43.137Z,5.23
2023-02-03T12:04:50.912Z,2.93
2023-02-03T12:09:10.453Z,4.07
2023-02-03T12:13:33.626Z,2.93
2023-02-03T12:17:54.924Z,2.20
2023-02-03T12:22:11.616Z,1.50
2023-02-03T12:26:22.735Z,3.87
2023-02-03T12:30:42.915Z,1.63
2023-02-03T12:35:11.693Z,3.77
2023-02-03T12:39:19.415Z,2.07
2023-02-03T12:43:35.348Z,3.23
2023-02-03T12:47:58.932Z,3.23
2023-02-03T12:52:03.922Z,2.67
2023-02-03T12:56:14.900Z,2.60
2023-02-03T13:00:34.879Z,2.73
2023-02-03T13:04:48.913Z,5.57
2023-02-03T13:09:02.838Z,2.93
2023-02-03T13:13:07.032Z,2.80
2023-02-03T13:17:15.000Z,3.80
2023-02-03T13:21:16.277Z,6.97
2023-02-03T13:25:40.689Z,4.23
2023-02-03T13:29:57.628Z,11.20
2023-02-03T13:34:17.381Z,5.93
2023-02-03T13:38:37.243Z,6.63
2023-02-03T13:42:48.203Z,6.83
2023-02-03T13:46:51.976Z,5.37
2023-02-03T13:55:04.262Z,4.40
2023-02-03T13:59:15.249Z,5.97
2023-02-03T14:03:26.079Z,5.00
2023-02-03T14:07:37.655Z,7.00
2023-02-03T14:11:40.432Z,17.30
2023-02-03T14:15:43.817Z,4.77
2023-02-03T14:19:51.785Z,5.37
2023-02-03T14:23:59.723Z,8.20
2023-02-03T14:28:08.023Z,10.47
2023-02-03T14:32:11.087Z,10.20
2023-02-03T14:36:43.016Z,10.33
2023-02-03T14:40:54.287Z,12.30
2023-02-03T14:45:21.685Z,12.43
2023-02-03T14:49:26.482Z,14.50
2023-02-03T14:53:42.925Z,12.70
2023-02-03T14:57:50.044Z,31.40
2023-02-03T15:01:55.149Z,14.20
2023-02-03T15:06:04.609Z,13.63
2023-02-03T15:10:20.743Z,12.10
2023-02-03T15:14:27.080Z,12.00
2023-02-03T15:18:39.713Z,15.37
2023-02-03T15:22:41.035Z,13.30
2023-02-03T15:26:47.683Z,14.90
2023-02-03T15:30:55.772Z,13.10
2023-02-03T15:34:58.328Z,14.67
2023-02-03T15:39:04.220Z,14.47
2023-02-03T15:43:24.238Z,13.20
2023-02-03T15:47:29.000Z,14.20
2023-02-03T15:51:40.068Z,14.60
2023-02-03T15:55:44.039Z,15.90
2023-02-03T15:59:54.957Z,15.40
2023-02-03T16:03:57.965Z,16.30
2023-02-03T16:08:28.702Z,13.93
2023-02-03T16:12:31.702Z,14.90
2023-02-03T16:16:36.635Z,27.13
2023-02-03T16:20:41.430Z,19.43
2023-02-03T16:24:44.995Z,20.10
2023-02-03T16:29:29.539Z,31.73
2023-02-03T16:33:50.093Z,20.27
2023-02-03T16:38:09.695Z,24.93
2023-02-03T16:42:35.058Z,17.37
2023-02-03T16:46:54.787Z,19.23
2023-02-03T16:50:59.274Z,22.93
2023-02-03T16:55:00.238Z,19.27
2023-02-03T16:59:02.152Z,17.23
2023-02-03T17:03:06.056Z,19.50
2023-02-03T17:07:07.669Z,18.40
2023-02-03T17:11:12.862Z,18.37
2023-02-03T17:15:13.947Z,20.90
2023-02-03T17:19:15.374Z,21.93
2023-02-03T17:23:17.088Z,22.33
2023-02-03T17:27:18.891Z,20.63
2023-02-03T17:31:20.558Z,26.73
2023-02-03T17:35:22.386Z,22.00
2023-02-03T17:56:45.135Z,22.50
2023-02-03T18:00:48.772Z,20.77
2023-02-03T18:04:50.216Z,22.47
2023-02-03T18:08:51.635Z,21.37
2023-02-03T18:12:53.418Z,26.80
2023-02-03T18:16:55.374Z,18.10
2023-02-03T18:20:56.596Z,16.17
2023-02-03T18:24:58.090Z,17.00
2023-02-03T18:28:59.681Z,21.10
2023-02-03T18:33:01.631Z,12.93
2023-02-03T18:37:03.493Z,20.83
2023-02-03T18:41:09.576Z,17.83
2023-02-03T18:45:11.380Z,18.93
2023-02-03T18:49:13.113Z,24.67
2023-02-03T18:53:14.668Z,27.70
2023-02-03T18:57:15.799Z,24.97
2023-02-03T19:01:26.018Z,23.93
2023-02-03T19:05:27.500Z,25.93
2023-02-03T19:09:28.697Z,18.27
2023-02-03T19:13:30.274Z,31.07
2023-02-03T19:17:31.614Z,21.03
2023-02-03T19:21:32.963Z,28.67
2023-02-03T19:25:37.108Z,22.23
2023-02-03T19:29:39.431Z,23.13
2023-02-03T19:33:40.616Z,21.23
2023-02-03T19:37:41.710Z,29.63
2023-02-03T19:41:43.153Z,20.83
2023-02-03T19:45:44.449Z,24.33
2023-02-03T19:49:45.537Z,31.00
2023-02-03T19:53:47.456Z,21.17
2023-02-03T19:57:49.433Z,26.80
2023-02-03T20:01:50.654Z,28.57
2023-02-03T20:05:54.937Z,18.27
2023-02-03T20:09:55.946Z,20.57
2023-02-03T20:13:57.088Z,24.47
2023-02-03T20:17:58.541Z,19.80
2023-02-03T20:22:00.470Z,26.10
2023-02-03T20:26:02.615Z,21.93
2023-02-03T20:30:04.420Z,33.70
2023-02-03T20:34:05.688Z,23.77
2023-02-03T20:38:06.675Z,26.97
2023-02-03T20:42:15.840Z,21.60
2023-02-03T20:46:18.897Z,20.03
2023-02-03T20:50:28.845Z,22.93
2023-02-03T20:54:26.070Z,17.70
2023-02-03T20:58:30.778Z,17.50
2023-02-03T21:02:35.461Z,25.90
2023-02-03T21:06:36.590Z,15.30
2023-02-03T21:10:37.633Z,23.03
2023-02-03T21:14:42.771Z,24.60
2023-02-03T21:18:50.658Z,22.87
2023-02-03T21:22:52.176Z,25.00
2023-02-03T21:26:53.951Z,30.47
2023-02-03T21:30:56.440Z,27.67
2023-02-03T21:34:57.499Z,25.40
2023-02-03T21:38:59.485Z,16.33
2023-02-03T21:43:04.453Z,15.63
2023-02-03T21:47:15.410Z,28.77
2023-02-03T21:51:20.408Z,21.73
2023-02-03T21:55:21.769Z,16.77
2023-02-03T21:59:28.680Z,22.57
2023-02-03T22:03:36.075Z,18.07
2023-02-03T22:07:38.396Z,22.70
2023-02-03T22:11:39.772Z,22.90
2023-02-03T22:15:42.105Z,23.97
2023-02-03T22:19:43.368Z,20.27
2023-02-03T22:23:44.517Z,23.40
2023-02-03T22:27:45.688Z,21.90
2023-02-03T22:31:46.994Z,18.27
2023-02-03T22:35:48.442Z,21.73
2023-02-03T22:39:49.630Z,12.00
2023-02-03T22:43:50.768Z,24.47
2023-02-03T22:47:51.786Z,19.47
2023-02-03T22:51:53.018Z,21.30
2023-02-03T22:55:54.269Z,17.77
2023-02-03T22:59:55.413Z,20.30
2023-02-03T23:03:56.437Z,20.90
2023-02-03T23:07:57.550Z,20.27
2023-02-03T23:11:58.768Z,21.60
2023-02-03T23:15:59.981Z,14.00
2023-02-03T23:20:01.047Z,19.17
2023-02-03T23:24:02.278Z,13.67
2023-02-03T23:28:03.721Z,18.93
2023-02-03T23:32:06.118Z,24.10
2023-02-03T23:36:07.511Z,16.63
2023-02-03T23:40:09.666Z,15.37
2023-02-03T23:44:11.136Z,15.33
2023-02-03T23:48:12.488Z,17.57
2023-02-03T23:52:15.297Z,13.13
2023-02-03T23:56:16.479Z,18.17
